createdAt,value
2023-05-07T00:01:36.159Z,5.30
2023-05-07T00:04:03.459Z,4.07
2023-05-07T00:06:30.757Z,6.80
2023-05-07T00:08:58.455Z,4.75
2023-05-07T00:11:24.851Z,7.97
2023-05-07T00:13:51.216Z,5.27
2023-05-07T00:16:17.698Z,5.25
2023-05-07T00:18:45.153Z,5.57
2023-05-07T00:21:11.986Z,5.45
2023-05-07T00:23:38.468Z,4.72
2023-05-07T00:26:05.025Z,4.23
2023-05-07T00:28:31.458Z,5.70
2023-05-07T00:30:58.089Z,9.65
2023-05-07T00:33:24.436Z,5.25
2023-05-07T00:35:51.044Z,6.47
2023-05-07T00:38:17.447Z,4.77
2023-05-07T00:40:43.810Z,6.10
2023-05-07T00:43:10.268Z,6.78
2023-05-07T00:45:36.773Z,6.10
2023-05-07T00:48:04.535Z,4.72
2023-05-07T00:50:33.384Z,6.30
2023-05-07T00:53:00.471Z,6.13
2023-05-07T00:55:27.108Z,5.38
2023-05-07T00:57:53.524Z,4.93
2023-05-07T01:00:20.806Z,6.35
2023-05-07T01:02:47.668Z,10.70
2023-05-07T01:05:18.325Z,6.32
2023-05-07T01:07:46.400Z,6.70
2023-05-07T01:10:13.440Z,6.65
2023-05-07T01:12:41.685Z,9.25
2023-05-07T01:15:10.295Z,5.83
2023-05-07T01:17:38.865Z,6.28
2023-05-07T01:20:06.507Z,6.43
2023-05-07T01:22:37.734Z,8.07
2023-05-07T01:25:05.449Z,6.13
2023-05-07T01:27:31.960Z,5.07
2023-05-07T01:29:58.385Z,6.38
2023-05-07T01:32:30.166Z,6.35
2023-05-07T01:34:58.494Z,6.32
2023-05-07T01:37:26.060Z,5.88
2023-05-07T01:39:53.730Z,6.97
2023-05-07T01:42:20.675Z,5.38
2023-05-07T01:44:47.374Z,7.05
2023-05-07T01:47:15.072Z,6.95
2023-05-07T01:49:43.004Z,6.82
2023-05-07T01:52:12.239Z,7.27
2023-05-07T01:54:39.196Z,6.15
2023-05-07T01:57:05.717Z,6.03
2023-05-07T01:59:32.120Z,5.57
2023-05-07T02:01:58.563Z,6.50
2023-05-07T02:04:25.633Z,6.57
2023-05-07T02:06:52.043Z,5.20
2023-05-07T02:09:18.775Z,6.88
2023-05-07T02:11:45.408Z,6.60
2023-05-07T02:14:11.859Z,6.80
2023-05-07T02:16:38.240Z,6.43
2023-05-07T02:19:04.576Z,6.22
2023-05-07T02:21:31.261Z,6.25
2023-05-07T02:23:57.746Z,6.15
2023-05-07T02:26:24.147Z,6.97
2023-05-07T02:28:50.578Z,8.23
2023-05-07T02:31:17.093Z,7.38
2023-05-07T02:33:43.550Z,6.90
2023-05-07T02:36:11.116Z,7.15
2023-05-07T02:38:37.700Z,6.50
2023-05-07T02:41:04.053Z,6.97
2023-05-07T02:43:30.506Z,6.05
2023-05-07T02:46:08.741Z,6.72
2023-05-07T02:48:35.943Z,7.45
2023-05-07T02:51:03.675Z,6.10
2023-05-07T02:53:30.390Z,6.33
2023-05-07T02:55:58.521Z,7.30
2023-05-07T02:58:25.284Z,6.72
2023-05-07T03:00:51.693Z,7.43
2023-05-07T03:03:18.284Z,7.40
2023-05-07T03:05:44.665Z,6.13
2023-05-07T03:08:11.279Z,6.78
2023-05-07T03:10:38.233Z,7.53
2023-05-07T03:13:05.036Z,5.70
2023-05-07T03:15:31.528Z,7.60
2023-05-07T03:17:57.995Z,8.20
2023-05-07T03:20:24.441Z,8.52
2023-05-07T03:22:50.993Z,6.65
2023-05-07T03:25:17.345Z,7.47
2023-05-07T03:27:43.661Z,7.75
2023-05-07T03:30:10.850Z,7.70
2023-05-07T03:32:37.501Z,8.55
2023-05-07T03:35:04.217Z,9.93
2023-05-07T03:37:30.634Z,6.53
2023-05-07T03:39:57.048Z,7.22
2023-05-07T03:42:23.599Z,7.30
2023-05-07T03:44:49.977Z,6.95
2023-05-07T03:47:16.334Z,7.32
2023-05-07T03:49:42.747Z,12.10
2023-05-07T03:52:09.218Z,11.50
2023-05-07T03:54:35.649Z,12.80
2023-05-07T03:57:02.742Z,7.07
2023-05-07T03:59:29.148Z,6.68
2023-05-07T04:01:55.648Z,7.75
2023-05-07T04:04:22.293Z,9.68
2023-05-07T04:06:48.699Z,8.63
2023-05-07T04:09:15.084Z,6.45
2023-05-07T04:11:41.461Z,8.80
2023-05-07T04:14:07.934Z,7.05
2023-05-07T04:16:36.029Z,9.40
2023-05-07T04:19:02.353Z,7.33
2023-05-07T04:21:28.754Z,8.65
2023-05-07T04:23:55.056Z,8.52
2023-05-07T04:26:22.261Z,9.85
2023-05-07T04:28:48.669Z,12.93
2023-05-07T04:31:15.167Z,8.40
2023-05-07T04:33:41.569Z,13.48
2023-05-07T04:36:08.312Z,11.48
2023-05-07T04:38:34.723Z,8.43
2023-05-07T04:41:06.145Z,9.20
2023-05-07T04:43:32.657Z,13.63
2023-05-07T04:45:59.451Z,9.57
2023-05-07T04:48:25.930Z,8.70
2023-05-07T04:50:52.276Z,8.50
2023-05-07T04:53:19.235Z,9.43
2023-05-07T04:55:46.219Z,9.90
2023-05-07T04:58:13.141Z,8.30
2023-05-07T05:00:40.565Z,8.80
2023-05-07T05:03:10.093Z,9.25
2023-05-07T05:05:36.771Z,9.13
2023-05-07T05:08:03.185Z,8.70
2023-05-07T05:10:29.570Z,7.78
2023-05-07T05:12:56.074Z,8.82
2023-05-07T05:15:22.856Z,9.05
2023-05-07T05:17:49.305Z,9.38
2023-05-07T05:20:15.903Z,10.07
2023-05-07T05:22:43.024Z,11.55
2023-05-07T05:25:09.626Z,10.20
2023-05-07T05:27:36.620Z,8.82
2023-05-07T05:30:04.044Z,9.20
2023-05-07T05:32:30.524Z,9.30
2023-05-07T05:34:56.916Z,9.38
2023-05-07T05:37:23.684Z,9.50
2023-05-07T05:39:50.182Z,8.27
2023-05-07T05:42:16.633Z,9.48
2023-05-07T05:44:42.968Z,9.63
2023-05-07T05:47:09.331Z,9.18
2023-05-07T05:49:36.113Z,11.55
2023-05-07T05:52:02.686Z,10.55
2023-05-07T05:54:29.082Z,8.82
2023-05-07T05:56:55.469Z,9.40
2023-05-07T05:59:21.998Z,10.63
2023-05-07T06:01:48.577Z,9.52
2023-05-07T06:04:14.974Z,9.52
2023-05-07T06:06:41.348Z,9.65
2023-05-07T06:09:07.754Z,10.13
2023-05-07T06:11:34.108Z,10.55
2023-05-07T06:14:00.452Z,10.88
2023-05-07T06:16:26.948Z,9.75
2023-05-07T06:18:53.295Z,12.77
2023-05-07T06:21:19.668Z,9.57
2023-05-07T06:23:45.998Z,9.43
2023-05-07T06:26:12.345Z,10.05
2023-05-07T06:28:38.754Z,11.00
2023-05-07T06:31:15.571Z,12.98
2023-05-07T06:33:43.842Z,9.90
2023-05-07T06:36:10.242Z,12.80
2023-05-07T06:38:36.840Z,10.65
2023-05-07T06:41:03.236Z,11.48
2023-05-07T06:43:29.569Z,10.27
2023-05-07T06:45:56.172Z,9.87
2023-05-07T06:48:22.693Z,13.65
2023-05-07T06:50:49.032Z,12.00
2023-05-07T06:53:15.452Z,16.02
2023-05-07T06:55:42.656Z,13.43
2023-05-07T06:58:09.049Z,10.97
2023-05-07T07:00:35.938Z,13.35
2023-05-07T07:03:02.311Z,15.75
2023-05-07T07:05:28.750Z,12.18
2023-05-07T07:07:55.168Z,11.88
2023-05-07T07:10:22.271Z,11.00
2023-05-07T07:12:49.717Z,11.70
2023-05-07T07:15:16.729Z,12.40
2023-05-07T07:17:43.530Z,11.45
2023-05-07T07:20:12.058Z,11.45
2023-05-07T07:22:38.799Z,10.33
2023-05-07T07:25:05.468Z,9.93
2023-05-07T07:27:31.798Z,11.70
2023-05-07T07:29:58.132Z,9.45
2023-05-07T07:32:24.563Z,11.57
2023-05-07T07:34:50.991Z,9.73
2023-05-07T07:37:17.532Z,11.45
2023-05-07T07:39:43.889Z,9.77
2023-05-07T07:42:10.254Z,13.65
2023-05-07T07:44:36.586Z,10.10
2023-05-07T07:47:03.028Z,9.20
2023-05-07T07:49:29.536Z,10.95
2023-05-07T07:51:57.333Z,9.88
2023-05-07T07:54:23.754Z,10.60
2023-05-07T07:56:50.143Z,8.82
2023-05-07T07:59:19.701Z,9.33
2023-05-07T08:01:46.377Z,12.15
2023-05-07T08:04:13.055Z,11.73
2023-05-07T08:06:39.651Z,10.10
2023-05-07T08:09:06.021Z,14.10
2023-05-07T08:11:32.399Z,10.63
2023-05-07T08:13:58.835Z,9.48
2023-05-07T08:16:25.440Z,9.57
2023-05-07T08:18:51.874Z,9.38
2023-05-07T08:21:18.312Z,10.82
2023-05-07T08:23:44.641Z,11.97
2023-05-07T08:26:11.069Z,10.02
2023-05-07T08:28:37.500Z,11.20
2023-05-07T08:31:03.998Z,9.48
2023-05-07T08:33:30.576Z,10.57
2023-05-07T08:35:56.930Z,12.10
2023-05-07T08:38:23.300Z,11.70
2023-05-07T08:40:49.674Z,12.02
2023-05-07T08:43:16.041Z,12.13
2023-05-07T08:45:42.495Z,12.15
2023-05-07T08:48:18.767Z,12.53
2023-05-07T08:50:45.331Z,12.38
2023-05-07T08:53:11.871Z,11.38
2023-05-07T08:55:38.359Z,11.40
2023-05-07T08:58:04.915Z,14.25
2023-05-07T09:00:31.301Z,12.07
2023-05-07T09:02:57.834Z,12.80
2023-05-07T09:05:24.326Z,11.95
2023-05-07T09:07:53.322Z,13.48
2023-05-07T09:10:22.008Z,11.95
2023-05-07T09:12:48.968Z,12.30
2023-05-07T09:15:15.456Z,16.20
2023-05-07T09:17:43.297Z,12.50
2023-05-07T09:20:11.028Z,12.82
2023-05-07T09:22:38.928Z,13.95
2023-05-07T09:25:07.553Z,14.63
2023-05-07T09:27:34.085Z,14.85
2023-05-07T09:30:00.555Z,16.50
2023-05-07T09:32:28.313Z,13.32
2023-05-07T09:34:55.458Z,12.10
2023-05-07T09:37:22.305Z,14.10
2023-05-07T09:39:50.596Z,12.82
2023-05-07T09:42:17.083Z,12.75
2023-05-07T09:44:46.516Z,12.02
2023-05-07T09:47:19.421Z,17.42
2023-05-07T09:49:48.846Z,13.80
2023-05-07T09:52:15.972Z,14.27
2023-05-07T09:54:44.336Z,12.90
2023-05-07T09:57:12.712Z,13.50
2023-05-07T09:59:39.478Z,14.82
2023-05-07T10:02:07.210Z,12.87
2023-05-07T10:04:34.550Z,13.43
2023-05-07T10:07:01.748Z,15.07
2023-05-07T10:09:28.089Z,13.02
2023-05-07T10:11:55.291Z,12.23
2023-05-07T10:14:22.785Z,12.87
2023-05-07T10:16:49.906Z,14.80
2023-05-07T10:19:17.333Z,13.63
2023-05-07T10:21:56.301Z,11.40
2023-05-07T10:24:35.227Z,15.52
2023-05-07T10:27:03.533Z,16.30
2023-05-07T10:30:07.666Z,13.52
2023-05-07T10:32:46.728Z,11.63
2023-05-07T10:35:18.939Z,13.63
2023-05-07T10:37:46.485Z,14.80
2023-05-07T10:40:13.502Z,12.07
2023-05-07T10:42:40.222Z,12.05
2023-05-07T10:45:15.029Z,10.25
2023-05-07T10:48:27.362Z,12.02
2023-05-07T10:51:22.701Z,13.98
2023-05-07T10:53:49.191Z,11.60
2023-05-07T10:56:18.620Z,13.52
2023-05-07T10:58:45.105Z,11.35
2023-05-07T11:01:13.686Z,12.40
2023-05-07T11:04:25.288Z,11.35
2023-05-07T11:07:09.991Z,9.77
2023-05-07T11:09:54.537Z,12.32
2023-05-07T11:12:48.151Z,11.85
2023-05-07T11:15:16.735Z,10.95
2023-05-07T11:18:00.388Z,10.77
2023-05-07T11:20:53.178Z,11.37
2023-05-07T11:23:35.007Z,11.10
2023-05-07T11:26:04.499Z,11.75
2023-05-07T11:28:32.023Z,11.80
2023-05-07T11:30:58.697Z,11.25
2023-05-07T11:33:28.041Z,12.50
2023-05-07T11:35:54.759Z,11.98
2023-05-07T11:38:21.569Z,13.13
2023-05-07T11:40:56.802Z,13.02
2023-05-07T11:43:23.178Z,10.70
2023-05-07T11:45:50.042Z,12.80
2023-05-07T11:48:17.298Z,11.75
2023-05-07T11:50:52.549Z,12.93
2023-05-07T11:53:19.221Z,13.15
2023-05-07T11:55:45.799Z,11.55
2023-05-07T11:58:13.857Z,12.57
2023-05-07T12:00:53.201Z,13.00
2023-05-07T12:03:20.196Z,13.57
2023-05-07T12:05:47.847Z,13.43
2023-05-07T12:08:18.270Z,12.80
2023-05-07T12:10:46.468Z,11.73
2023-05-07T12:13:20.354Z,13.55
2023-05-07T12:15:47.116Z,11.30
2023-05-07T12:18:14.306Z,11.85
2023-05-07T12:20:40.890Z,11.70
2023-05-07T12:23:07.711Z,15.07
2023-05-07T12:25:38.859Z,11.98
2023-05-07T12:28:06.118Z,11.52
2023-05-07T12:30:37.655Z,11.27
2023-05-07T12:33:04.201Z,11.45
2023-05-07T12:35:32.090Z,12.70
2023-05-07T12:38:00.849Z,10.35
2023-05-07T12:40:59.762Z,9.07
2023-05-07T12:43:28.702Z,8.40
2023-05-07T12:45:57.493Z,8.60
2023-05-07T12:48:24.732Z,9.73
2023-05-07T12:50:52.024Z,8.88
2023-05-07T12:53:21.913Z,8.57
2023-05-07T12:55:51.952Z,7.53
2023-05-07T12:58:24.300Z,9.68
2023-05-07T13:00:52.083Z,8.13
2023-05-07T13:03:26.059Z,8.93
2023-05-07T13:05:53.427Z,8.77
2023-05-07T13:08:27.679Z,8.57
2023-05-07T13:10:54.291Z,8.68
2023-05-07T13:13:21.693Z,7.53
2023-05-07T13:15:48.753Z,7.40
2023-05-07T13:18:15.607Z,7.32
2023-05-07T13:20:42.112Z,7.18
2023-05-07T13:23:08.484Z,7.80
2023-05-07T13:25:35.958Z,7.47
2023-05-07T13:28:10.609Z,6.35
2023-05-07T13:30:37.872Z,7.30
2023-05-07T13:33:04.400Z,8.32
2023-05-07T13:35:31.139Z,10.05
2023-05-07T13:37:57.572Z,9.47
2023-05-07T13:40:24.326Z,9.30
2023-05-07T13:42:51.841Z,7.70
2023-05-07T13:45:21.470Z,8.40
2023-05-07T13:47:48.076Z,11.68
2023-05-07T13:50:14.595Z,9.10
2023-05-07T13:52:46.459Z,10.60
2023-05-07T13:55:13.607Z,11.35
2023-05-07T13:57:39.940Z,12.98
2023-05-07T14:00:07.080Z,10.07
2023-05-07T14:02:33.577Z,10.03
2023-05-07T14:05:00.027Z,10.32
2023-05-07T14:07:26.355Z,10.65
2023-05-07T14:09:52.732Z,9.80
2023-05-07T14:12:19.053Z,10.90
2023-05-07T14:14:46.440Z,9.87
2023-05-07T14:17:13.132Z,13.23
2023-05-07T14:19:39.560Z,10.63
2023-05-07T14:22:05.876Z,10.57
2023-05-07T14:24:38.339Z,9.60
2023-05-07T14:27:05.483Z,11.83
2023-05-07T14:29:31.957Z,10.07
2023-05-07T14:31:58.336Z,8.95
2023-05-07T14:34:24.693Z,17.13
2023-05-07T14:36:51.050Z,9.27
2023-05-07T14:39:17.609Z,9.43
2023-05-07T14:41:44.017Z,8.45
2023-05-07T14:44:10.406Z,9.13
2023-05-07T14:46:36.898Z,8.48
2023-05-07T14:49:03.548Z,9.25
2023-05-07T14:51:30.112Z,8.67
2023-05-07T14:53:56.472Z,8.23
2023-05-07T14:56:22.971Z,7.97
2023-05-07T14:58:49.924Z,10.80
2023-05-07T15:01:16.555Z,8.02
2023-05-07T15:03:43.224Z,8.73
2023-05-07T15:06:09.664Z,7.90
2023-05-07T15:08:36.072Z,7.90
2023-05-07T15:11:02.453Z,7.63
2023-05-07T15:13:28.974Z,6.88
2023-05-07T15:15:55.441Z,7.37
2023-05-07T15:18:22.897Z,8.70
2023-05-07T15:20:49.396Z,8.95
2023-05-07T15:23:16.076Z,9.48
2023-05-07T15:25:42.424Z,8.35
2023-05-07T15:28:08.836Z,10.47
2023-05-07T15:30:35.371Z,9.15
2023-05-07T15:33:02.600Z,9.15
2023-05-07T15:35:29.145Z,7.80
2023-05-07T15:37:56.408Z,9.60
2023-05-07T15:40:22.801Z,7.73
2023-05-07T15:42:49.151Z,12.75
2023-05-07T15:45:15.492Z,5.70
2023-05-07T15:47:41.947Z,3.38
2023-05-07T15:50:08.841Z,3.08
2023-05-07T15:52:35.294Z,4.57
2023-05-07T15:55:03.417Z,16.02
2023-05-07T15:57:29.756Z,2.42
2023-05-07T15:59:56.131Z,4.90
2023-05-07T16:02:22.740Z,2.65
2023-05-07T16:04:49.300Z,4.60
2023-05-07T16:07:15.638Z,5.32
2023-05-07T16:09:42.026Z,3.15
2023-05-07T16:12:08.682Z,1.02
2023-05-07T16:14:35.103Z,2.83
2023-05-07T16:17:01.660Z,3.57
2023-05-07T16:19:30.414Z,4.47
2023-05-07T16:21:57.823Z,2.28
2023-05-07T16:24:24.192Z,12.30
2023-05-07T16:26:50.548Z,1.00
2023-05-07T16:29:17.009Z,3.17
2023-05-07T16:31:44.450Z,2.63
2023-05-07T16:34:10.779Z,3.63
2023-05-07T16:36:37.148Z,5.07
2023-05-07T16:39:03.597Z,9.15
2023-05-07T16:41:30.027Z,7.40
2023-05-07T16:43:57.727Z,4.20
2023-05-07T16:46:24.244Z,2.40
2023-05-07T16:48:50.708Z,3.40
2023-05-07T16:51:17.148Z,3.72
2023-05-07T16:53:43.511Z,5.13
2023-05-07T16:56:09.923Z,7.97
2023-05-07T16:58:36.334Z,5.40
2023-05-07T17:01:02.803Z,6.93
2023-05-07T17:03:29.886Z,4.68
2023-05-07T17:05:56.506Z,2.50
2023-05-07T17:08:22.891Z,4.25
2023-05-07T17:10:49.296Z,5.25
2023-05-07T17:13:15.750Z,7.00
2023-05-07T17:15:43.603Z,2.60
2023-05-07T17:18:10.136Z,3.30
2023-05-07T17:20:36.630Z,3.25
2023-05-07T17:23:02.969Z,2.10
2023-05-07T17:25:32.120Z,2.10
2023-05-07T17:27:58.629Z,3.97
2023-05-07T17:30:25.113Z,5.47
2023-05-07T17:32:51.514Z,1.73
2023-05-07T17:35:18.033Z,2.65
2023-05-07T17:37:52.119Z,3.05
2023-05-07T17:40:22.333Z,3.45
2023-05-07T17:42:49.238Z,3.20
2023-05-07T17:45:16.509Z,4.68
2023-05-07T17:47:42.951Z,5.22
2023-05-07T17:50:13.023Z,4.55
2023-05-07T17:52:41.405Z,4.32
2023-05-07T17:55:08.264Z,5.17
2023-05-07T17:57:36.868Z,4.78
2023-05-07T18:00:04.939Z,4.82
2023-05-07T18:02:31.752Z,7.15
2023-05-07T18:04:58.617Z,5.15
2023-05-07T18:07:25.037Z,8.30
2023-05-07T18:09:51.502Z,5.88
2023-05-07T18:12:17.900Z,8.48
2023-05-07T18:14:44.281Z,4.28
2023-05-07T18:17:10.989Z,4.60
2023-05-07T18:19:37.436Z,4.67
2023-05-07T18:22:03.834Z,5.95
2023-05-07T18:24:30.354Z,4.70
2023-05-07T18:26:56.729Z,5.35
2023-05-07T18:29:23.250Z,4.97
2023-05-07T18:31:49.873Z,5.07
2023-05-07T18:34:16.278Z,7.18
2023-05-07T18:36:42.614Z,5.07
2023-05-07T18:39:09.052Z,5.18
2023-05-07T18:41:35.889Z,4.55
2023-05-07T18:44:02.317Z,5.43
2023-05-07T18:46:29.509Z,5.72
2023-05-07T18:48:56.057Z,5.15
2023-05-07T18:51:22.508Z,5.57
2023-05-07T18:53:48.838Z,6.13
2023-05-07T18:56:15.198Z,5.40
2023-05-07T18:58:41.668Z,7.10
2023-05-07T19:01:08.661Z,6.40
2023-05-07T19:03:35.698Z,5.97
2023-05-07T19:06:02.210Z,7.38
2023-05-07T19:08:28.687Z,6.50
2023-05-07T19:10:56.393Z,7.40
2023-05-07T19:13:25.599Z,7.68
2023-05-07T19:15:52.167Z,8.20
2023-05-07T19:18:18.542Z,7.80
2023-05-07T19:20:44.899Z,7.87
2023-05-07T19:23:12.036Z,6.78
2023-05-07T19:25:38.421Z,6.22
2023-05-07T19:28:04.942Z,6.43
2023-05-07T19:30:31.429Z,7.70
2023-05-07T19:32:59.427Z,6.87
2023-05-07T19:35:25.873Z,6.68
2023-05-07T19:37:52.278Z,7.13
2023-05-07T19:40:18.798Z,6.75
2023-05-07T19:42:45.884Z,9.13
2023-05-07T19:45:15.074Z,7.30
2023-05-07T19:47:41.545Z,6.18
2023-05-07T19:50:08.656Z,6.60
2023-05-07T19:52:36.416Z,7.40
2023-05-07T19:55:02.935Z,11.07
2023-05-07T19:57:29.344Z,7.80
2023-05-07T19:59:55.677Z,7.47
2023-05-07T20:02:22.263Z,7.70
2023-05-07T20:04:48.766Z,6.32
2023-05-07T20:07:15.193Z,12.38
2023-05-07T20:09:41.617Z,8.23
2023-05-07T20:12:08.273Z,8.07
2023-05-07T20:14:34.741Z,8.15
2023-05-07T20:17:01.161Z,8.48
2023-05-07T20:19:27.687Z,7.30
2023-05-07T20:21:54.094Z,7.60
2023-05-07T20:24:20.578Z,7.80
2023-05-07T20:26:47.070Z,7.03
2023-05-07T20:29:13.569Z,7.05
2023-05-07T20:31:40.045Z,6.10
2023-05-07T20:34:07.315Z,6.00
2023-05-07T20:36:33.787Z,6.05
2023-05-07T20:39:00.148Z,76.22
2023-05-07T20:41:26.589Z,22.73
2023-05-07T20:43:53.125Z,5.35
2023-05-07T20:46:22.662Z,6.03
2023-05-07T20:48:49.719Z,6.25
2023-05-07T20:51:16.262Z,6.63
2023-05-07T20:53:46.039Z,9.00
2023-05-07T20:56:13.889Z,7.47
2023-05-07T20:58:40.265Z,6.47
2023-05-07T21:01:06.896Z,7.68
2023-05-07T21:03:33.261Z,4.63
2023-05-07T21:06:00.506Z,4.03
2023-05-07T21:08:27.532Z,39.22
2023-05-07T21:10:54.649Z,34.83
2023-05-07T21:13:21.441Z,6.18
2023-05-07T21:15:47.961Z,5.10
2023-05-07T21:18:14.408Z,5.20
2023-05-07T21:20:41.070Z,5.85
2023-05-07T21:23:07.593Z,6.17
2023-05-07T21:25:37.540Z,6.82
2023-05-07T21:28:09.761Z,6.97
2023-05-07T21:30:37.097Z,7.13
2023-05-07T21:33:05.595Z,7.80
2023-05-07T21:35:34.170Z,8.00
2023-05-07T21:38:02.454Z,7.05
2023-05-07T21:40:29.126Z,6.40
2023-05-07T21:42:55.528Z,6.57
2023-05-07T21:45:22.065Z,9.88
2023-05-07T21:47:48.481Z,5.73
2023-05-07T21:50:15.277Z,5.47
2023-05-07T21:52:42.375Z,6.18
2023-05-07T21:55:09.325Z,6.47
2023-05-07T21:57:40.740Z,5.75
2023-05-07T22:00:08.581Z,9.20
2023-05-07T22:02:35.306Z,7.75
2023-05-07T22:05:01.850Z,8.85
2023-05-07T22:07:28.208Z,7.30
2023-05-07T22:09:54.516Z,7.72
2023-05-07T22:12:21.089Z,16.13
2023-05-07T22:14:47.524Z,6.28
2023-05-07T22:17:13.950Z,5.97
2023-05-07T22:19:40.732Z,6.30
2023-05-07T22:22:07.096Z,6.95
2023-05-07T22:24:33.436Z,8.43
2023-05-07T22:26:59.789Z,10.30
2023-05-07T22:29:26.288Z,9.65
2023-05-07T22:31:52.771Z,9.88
2023-05-07T22:34:19.195Z,11.25
2023-05-07T22:36:45.885Z,8.17
2023-05-07T22:39:12.450Z,13.18
2023-05-07T22:41:38.888Z,9.43
2023-05-07T22:44:05.648Z,14.43
2023-05-07T22:46:32.123Z,22.50
2023-05-07T22:48:58.484Z,5.50
2023-05-07T22:51:24.828Z,9.60
2023-05-07T22:53:51.193Z,6.03
2023-05-07T22:56:17.642Z,7.75
2023-05-07T22:58:44.032Z,8.02
2023-05-07T23:01:14.991Z,10.03
2023-05-07T23:03:41.400Z,8.55
2023-05-07T23:06:07.990Z,9.68
2023-05-07T23:08:35.105Z,8.70
2023-05-07T23:11:01.498Z,6.85
2023-05-07T23:13:28.069Z,5.63
2023-05-07T23:15:54.602Z,5.32
2023-05-07T23:18:20.997Z,56.08
2023-05-07T23:20:47.410Z,123.75
2023-05-07T23:23:13.801Z,107.07
2023-05-07T23:25:40.272Z,257.77
2023-05-07T23:28:06.679Z,225.85
2023-05-07T23:30:34.708Z,69.03
2023-05-07T23:33:01.129Z,116.95
2023-05-07T23:35:27.588Z,136.95
2023-05-07T23:37:53.904Z,56.80
2023-05-07T23:40:20.319Z,12.13
2023-05-07T23:42:46.696Z,11.50
2023-05-07T23:45:13.029Z,8.98
2023-05-07T23:47:39.496Z,4.07
2023-05-07T23:50:06.254Z,3.77
2023-05-07T23:52:32.641Z,24.45
2023-05-07T23:54:59.325Z,8.95
2023-05-07T23:57:25.679Z,8.98
2023-05-07T23:59:52.066Z,8.18
